Time;durP1;ratioP1;P1;durP2;ratioP2;P2;SDS_P1;SDS_P2;PMS_P1;PMS_P2;Temp;Humidity;BMP_temperature;BMP_pressure;BME280_temperature;BME280_humidity;BME280_pressure;Samples;Min_cycle;Max_cycle;Signal;HPM_P1;HPM_P2
2022/12/24 00:03:42;;;;;;;0.90;0.57;;;;;;;9.62;100.00;100500.47;10405760;28;20081;-65
2022/12/24 00:08:44;;;;;;;1.08;1.00;;;;;;;9.54;100.00;100513.13;10431619;28;20072;-65
2022/12/24 00:13:47;;;;;;;7.43;1.15;;;;;;;9.44;100.00;100520.66;10413201;28;20122;-65
2022/12/24 00:18:49;;;;;;;7.00;1.42;;;;;;;9.58;100.00;100522.50;10376790;28;20045;-65
2022/12/24 00:23:51;;;;;;;7.22;0.50;;;;;;;9.55;100.00;100532.25;10403381;28;20862;-65
2022/12/24 00:28:54;;;;;;;3.22;1.65;;;;;;;9.51;100.00;100539.44;10409066;28;20075;-65
2022/12/24 00:33:56;;;;;;;2.78;0.35;;;;;;;9.56;100.00;100534.78;10394633;28;20100;-65
2022/12/24 00:38:58;;;;;;;2.25;2.05;;;;;;;9.47;100.00;100544.00;10391270;28;20042;-65
2022/12/24 00:44:04;;;;;;;3.30;1.40;;;;;;;9.40;100.00;100549.69;10405908;28;20056;-65
2022/12/24 00:49:07;;;;;;;0.35;0.35;;;;;;;9.48;100.00;100558.75;10363611;28;20077;-65
2022/12/24 00:54:10;;;;;;;2.08;0.90;;;;;;;9.49;100.00;100563.03;10403390;28;20054;-65
2022/12/24 00:59:12;;;;;;;0.20;0.20;;;;;;;9.58;100.00;100576.53;10347508;28;20046;-65
2022/12/24 01:09:35;;;;;;;1.10;1.10;;;;;;;9.56;100.00;100591.47;10406110;28;20065;-65
2022/12/24 01:14:37;;;;;;;3.53;3.33;;;;;;;9.51;100.00;100611.78;10420288;28;20489;-65
2022/12/24 01:19:40;;;;;;;19.02;7.32;;;;;;;9.46;100.00;100612.03;10415099;28;20057;-65
2022/12/24 01:24:43;;;;;;;0.20;0.20;;;;;;;9.44;100.00;100624.34;10421491;28;20550;-65
2022/12/24 01:29:45;;;;;;;24.85;3.63;;;;;;;9.47;100.00;100625.00;10408921;28;20060;-65
2022/12/24 01:34:47;;;;;;;0.57;0.57;;;;;;;9.57;100.00;100627.13;10419437;28;20053;-66
2022/12/24 01:39:50;;;;;;;3.30;0.30;;;;;;;9.45;100.00;100634.72;10416565;28;20508;-66
2022/12/24 01:44:53;;;;;;;11.02;2.08;;;;;;;9.45;100.00;100645.16;10414400;28;20065;-65
2022/12/24 01:50:03;;;;;;;0.20;0.20;;;;;;;9.55;100.00;100640.28;10382288;28;20383;-66
2022/12/24 01:55:14;;;;;;;0.20;0.20;;;;;;;9.62;100.00;100646.84;10401701;28;20053;-66
2022/12/24 02:00:17;;;;;;;6.78;2.92;;;;;;;9.41;100.00;100658.47;10419906;28;20045;-66
2022/12/24 02:05:30;;;;;;;0.13;0.13;;;;;;;9.28;100.00;100656.53;10419068;28;20077;-66
2022/12/24 02:10:32;;;;;;;6.00;1.75;;;;;;;9.20;100.00;100669.16;10402213;28;20050;-66
2022/12/24 02:16:14;;;;;;;0.17;0.17;;;;;;;9.22;100.00;100675.16;10416676;28;20057;-65
2022/12/24 02:21:42;;;;;;;4.50;1.40;;;;;;;9.09;100.00;100688.03;10404577;28;20053;-65
2022/12/24 02:26:51;;;;;;;6.57;2.65;;;;;;;9.10;100.00;100694.94;10418635;28;20049;-65
2022/12/24 02:31:56;;;;;;;12.43;0.82;;;;;;;9.03;100.00;100697.97;10396612;28;20041;-66
2022/12/24 02:37:04;;;;;;;1.23;1.20;;;;;;;8.86;100.00;100698.81;10407677;28;20137;-66
2022/12/24 02:42:07;;;;;;;0.20;0.20;;;;;;;8.88;100.00;100710.06;10374400;28;20484;-65
2022/12/24 02:47:10;;;;;;;0.32;0.32;;;;;;;8.83;100.00;100699.84;10395492;28;20083;-66
2022/12/24 02:52:38;;;;;;;4.43;1.55;;;;;;;8.78;100.00;100714.06;10418000;28;20065;-65
2022/12/24 02:58:15;;;;;;;8.38;0.70;;;;;;;8.87;100.00;100713.56;10415198;28;20053;-65
2022/12/24 03:03:39;;;;;;;16.15;1.95;;;;;;;8.83;100.00;100709.44;10416256;28;20053;-65
2022/12/24 03:08:54;;;;;;;0.30;0.30;;;;;;;8.95;100.00;100713.19;10400623;28;20111;-66
2022/12/24 03:13:58;;;;;;;0.28;0.25;;;;;;;9.00;100.00;100721.63;10398575;28;20090;-65
2022/12/24 03:19:01;;;;;;;0.13;0.13;;;;;;;9.04;100.00;100713.53;10413377;28;20499;-66
2022/12/24 03:24:03;;;;;;;0.20;0.20;;;;;;;9.08;100.00;100722.91;10407383;28;20061;-66
2022/12/24 03:29:06;;;;;;;4.07;0.60;;;;;;;9.18;100.00;100719.78;10388224;28;20049;-66
2022/12/24 03:34:09;;;;;;;0.60;0.60;;;;;;;9.17;100.00;100725.97;10408322;28;20069;-66
2022/12/24 03:39:12;;;;;;;0.20;0.20;;;;;;;9.18;100.00;100718.06;10415672;28;20132;-66
2022/12/24 03:44:15;;;;;;;9.52;8.55;;;;;;;9.16;100.00;100727.72;10393730;28;20489;-66
2022/12/24 03:49:17;;;;;;;0.20;0.20;;;;;;;9.05;100.00;100743.97;10399457;28;20404;-66
2022/12/24 03:54:20;;;;;;;0.95;0.95;;;;;;;9.02;100.00;100735.44;10381500;28;20046;-66
2022/12/24 03:59:22;;;;;;;0.40;0.40;;;;;;;9.03;100.00;100743.19;10403247;28;20045;-65
2022/12/24 04:04:24;;;;;;;0.20;0.20;;;;;;;9.10;100.00;100744.56;10404189;28;20054;-66
2022/12/24 04:09:27;;;;;;;5.63;3.70;;;;;;;9.09;100.00;100766.41;10410581;28;20053;-66
2022/12/24 04:14:29;;;;;;;1.73;1.63;;;;;;;9.16;100.00;100766.88;10413478;28;20052;-66
2022/12/24 04:19:32;;;;;;;0.20;0.20;;;;;;;9.12;100.00;100760.16;10412559;28;20045;-65
2022/12/24 04:24:34;;;;;;;0.10;0.10;;;;;;;9.24;100.00;100756.88;10407577;28;20111;-66
2022/12/24 04:29:36;;;;;;;0.73;0.73;;;;;;;9.32;100.00;100773.94;10381166;28;20045;-66
2022/12/24 04:34:39;;;;;;;20.17;1.67;;;;;;;9.32;100.00;100774.78;10409568;28;20099;-66
2022/12/24 04:39:41;;;;;;;6.80;3.33;;;;;;;9.41;100.00;100773.44;10409797;28;20053;-66
2022/12/24 04:44:43;;;;;;;1.00;0.35;;;;;;;9.47;100.00;100768.75;10389733;28;20041;-66
2022/12/24 04:49:46;;;;;;;0.40;0.40;;;;;;;9.42;100.00;100773.38;10419199;28;20046;-66
2022/12/24 04:54:48;;;;;;;0.45;0.45;;;;;;;9.52;100.00;100784.19;10422655;28;20054;-66
2022/12/24 04:59:50;;;;;;;0.17;0.17;;;;;;;9.62;100.00;100787.16;10395748;28;20042;-66
2022/12/24 05:04:52;;;;;;;4.68;1.48;;;;;;;9.59;100.00;100788.16;10388554;28;20061;-66
2022/12/24 05:09:55;;;;;;;2.08;1.33;;;;;;;9.63;100.00;100802.78;10366428;28;20497;-66
2022/12/24 05:14:57;;;;;;;0.15;0.15;;;;;;;9.65;100.00;100798.28;10398596;28;20119;-66
2022/12/24 05:19:59;;;;;;;0.70;0.60;;;;;;;9.86;100.00;100780.59;10409242;28;20057;-66
2022/12/24 05:30:22;;;;;;;8.40;3.10;;;;;;;9.68;100.00;100776.34;10417836;28;20531;-66
2022/12/24 05:35:25;;;;;;;54.55;3.97;;;;;;;9.70;100.00;100798.06;10405606;28;20049;-66
2022/12/24 05:40:27;;;;;;;0.73;0.73;;;;;;;9.86;100.00;100798.91;10390707;28;20457;-66
2022/12/24 05:45:29;;;;;;;35.00;4.55;;;;;;;9.70;100.00;100808.50;10406132;28;20049;-66
2022/12/24 05:50:32;;;;;;;0.25;0.25;;;;;;;9.86;100.00;100800.69;10417169;28;20056;-66
2022/12/24 05:55:34;;;;;;;1.95;0.40;;;;;;;9.84;100.00;100800.75;10413394;28;20065;-66
2022/12/24 06:00:36;;;;;;;5.40;1.05;;;;;;;9.82;100.00;100797.38;10419971;28;20045;-66
2022/12/24 06:05:40;;;;;;;1.65;0.77;;;;;;;9.71;100.00;100818.03;10417146;28;20056;-66
2022/12/24 06:10:42;;;;;;;0.88;0.88;;;;;;;9.79;100.00;100825.47;10390098;28;20413;-66
2022/12/24 06:15:44;;;;;;;14.88;3.58;;;;;;;9.76;100.00;100830.88;10419616;28;20104;-66
2022/12/24 06:20:53;;;;;;;3.00;0.65;;;;;;;9.80;100.00;100840.22;10402375;28;20050;-66
2022/12/24 06:25:56;;;;;;;0.10;0.10;;;;;;;9.91;100.00;100856.19;10395176;28;20076;-66
2022/12/24 06:31:02;;;;;;;0.28;0.28;;;;;;;9.74;100.00;100859.69;10391428;28;20066;-66
2022/12/24 06:36:10;;;;;;;0.55;0.55;;;;;;;9.68;100.00;100870.47;10394689;23;20063;-66
2022/12/24 06:41:19;;;;;;;12.02;2.15;;;;;;;9.83;100.00;100877.53;10397234;28;20511;-66
2022/12/24 06:46:22;;;;;;;0.10;0.10;;;;;;;9.93;100.00;100890.09;10409974;28;20046;-66
2022/12/24 06:51:24;;;;;;;0.20;0.20;;;;;;;9.91;100.00;100882.34;10386430;28;20053;-66
2022/12/24 06:56:26;;;;;;;0.20;0.20;;;;;;;9.78;100.00;100881.28;10388919;28;20060;-66
2022/12/24 07:01:29;;;;;;;0.17;0.17;;;;;;;9.67;100.00;100884.50;10408980;28;20042;-66
2022/12/24 07:06:31;;;;;;;16.10;1.15;;;;;;;9.61;100.00;100890.84;10406560;28;20100;-66
2022/12/24 07:11:33;;;;;;;2.55;2.35;;;;;;;9.67;100.00;100892.34;10371378;28;20057;-66
2022/12/24 07:16:36;;;;;;;0.20;0.20;;;;;;;9.61;100.00;100906.53;10394813;28;20061;-66
2022/12/24 07:21:38;;;;;;;0.20;0.20;;;;;;;9.61;100.00;100910.94;10412804;28;20056;-66
2022/12/24 07:26:41;;;;;;;0.20;0.20;;;;;;;9.63;100.00;100924.78;10393263;28;20056;-66
2022/12/24 07:31:43;;;;;;;1.65;0.38;;;;;;;9.60;100.00;100920.56;10410388;28;20107;-66
2022/12/24 07:36:45;;;;;;;2.92;2.17;;;;;;;9.47;100.00;100928.16;10404502;28;20054;-66
2022/12/24 07:41:49;;;;;;;0.20;0.20;;;;;;;9.59;100.00;100941.56;10387225;28;20527;-66
2022/12/24 07:46:51;;;;;;;226.38;207.88;;;;;;;9.56;100.00;100950.38;10366674;28;20089;-66
2022/12/24 07:51:54;;;;;;;448.63;192.70;;;;;;;9.70;100.00;100967.13;10401971;28;20046;-66
2022/12/24 07:56:56;;;;;;;0.22;0.22;;;;;;;9.64;100.00;100970.91;10408859;28;20053;-66
2022/12/24 08:01:58;;;;;;;4.13;3.83;;;;;;;9.57;100.00;100977.38;10403989;28;20091;-65
2022/12/24 08:07:04;;;;;;;5.07;4.03;;;;;;;9.62;100.00;100984.06;10398141;28;20054;-66
2022/12/24 08:12:07;;;;;;;6.32;2.05;;;;;;;9.53;100.00;100996.75;10394513;28;20071;-66
2022/12/24 08:17:09;;;;;;;2.35;0.98;;;;;;;9.58;100.00;100999.97;10457172;28;20064;-66
2022/12/24 08:22:11;;;;;;;0.28;0.28;;;;;;;9.53;100.00;101012.41;10456653;28;20094;-66
2022/12/24 08:27:13;;;;;;;0.90;0.90;;;;;;;9.58;100.00;101013.91;10442766;28;20054;-66
2022/12/24 08:32:16;;;;;;;21.33;20.45;;;;;;;9.63;100.00;101014.53;10415692;28;20054;-66
2022/12/24 08:37:19;;;;;;;19.20;18.50;;;;;;;9.63;100.00;101016.25;10414749;28;20066;-66
2022/12/24 08:42:21;;;;;;;10.93;10.52;;;;;;;9.69;100.00;101013.34;10414260;28;20057;-66
2022/12/24 08:47:24;;;;;;;9.13;8.77;;;;;;;9.74;100.00;101028.81;10414508;28;20555;-66
2022/12/24 08:52:26;;;;;;;12.10;11.32;;;;;;;9.74;100.00;101031.44;10414116;28;20397;-66
2022/12/24 08:57:28;;;;;;;11.93;10.95;;;;;;;9.83;100.00;101038.81;10397353;28;20128;-66
2022/12/24 09:02:31;;;;;;;19.88;16.95;;;;;;;9.80;100.00;101049.41;10414325;28;20369;-66
2022/12/24 09:07:33;;;;;;;13.05;11.73;;;;;;;9.76;100.00;101050.50;10414986;28;20058;-65
2022/12/24 09:12:36;;;;;;;34.25;18.42;;;;;;;9.75;100.00;101049.66;10414906;28;20072;-66
2022/12/24 09:17:38;;;;;;;10.07;9.77;;;;;;;10.13;100.00;101046.03;10414222;28;20503;-66
2022/12/24 09:22:40;;;;;;;15.70;14.75;;;;;;;10.22;100.00;101048.13;10413987;28;20042;-66
2022/12/24 09:27:43;;;;;;;2.17;0.68;;;;;;;10.52;100.00;101051.00;10414678;28;20053;-66
2022/12/24 09:32:45;;;;;;;13.68;1.65;;;;;;;10.44;100.00;101063.63;10418317;28;20046;-66
2022/12/24 09:38:01;;;;;;;1.35;1.05;;;;;;;11.31;100.00;101063.28;10421390;28;20061;-66
2022/12/24 09:43:16;;;;;;;1.30;1.30;;;;;;;10.55;100.00;101076.97;10406218;28;20184;-66
2022/12/24 09:48:25;;;;;;;3.03;0.90;;;;;;;10.25;100.00;101094.25;10403148;28;20053;-66
2022/12/24 09:53:40;;;;;;;1.25;1.15;;;;;;;10.09;100.00;101095.03;10387582;28;20045;-66
2022/12/24 09:58:47;;;;;;;6.95;2.33;;;;;;;10.08;100.00;101109.03;10400651;28;20524;-66
2022/12/24 10:03:49;;;;;;;0.20;0.20;;;;;;;10.60;100.00;101113.41;10386486;28;20176;-67
2022/12/24 10:09:10;;;;;;;13.15;1.98;;;;;;;10.64;100.00;101116.69;10379119;28;20045;-67
2022/12/24 10:14:28;;;;;;;6.15;2.38;;;;;;;10.54;100.00;101126.81;10414269;28;20476;-67
2022/12/24 10:19:39;;;;;;;5.45;2.28;;;;;;;10.56;100.00;101124.97;10395838;28;20072;-67
2022/12/24 10:25:03;;;;;;;0.28;0.28;;;;;;;10.60;100.00;101135.19;10402428;28;20050;-67
2022/12/24 10:30:20;;;;;;;0.20;0.20;;;;;;;10.59;100.00;101133.50;10418730;28;20124;-67
2022/12/24 10:35:31;;;;;;;1.23;1.13;;;;;;;10.43;100.00;101140.47;10416918;28;20509;-67
2022/12/24 10:41:00;;;;;;;0.33;0.33;;;;;;;10.47;100.00;101122.81;10416490;28;20053;-67
2022/12/24 10:46:06;;;;;;;5.97;1.92;;;;;;;10.23;100.00;101112.66;10416985;28;20057;-67
2022/12/24 10:51:17;;;;;;;0.55;0.55;;;;;;;10.37;100.00;101114.59;10400777;28;20050;-67
2022/12/24 10:56:20;;;;;;;11.57;2.33;;;;;;;10.13;100.00;101114.88;10418867;28;20060;-67
2022/12/24 11:01:44;;;;;;;1999.90;999.90;;;;;;;10.22;100.00;101129.25;10418548;28;20041;-67
2022/12/24 11:06:52;;;;;;;58.75;55.85;;;;;;;10.13;100.00;101137.59;10400902;28;20053;-67
2022/12/24 11:11:57;;;;;;;40.17;38.53;;;;;;;10.04;100.00;101146.75;10417543;28;20485;-67
2022/12/24 11:17:05;;;;;;;27.20;25.77;;;;;;;10.10;100.00;101137.75;10401384;28;20049;-67
2022/12/24 11:22:18;;;;;;;24.00;22.98;;;;;;;10.26;100.00;101137.84;10417116;28;20050;-67
2022/12/24 11:27:44;;;;;;;28.70;27.10;;;;;;;10.44;100.00;101133.44;10400251;28;20069;-67
2022/12/24 11:32:49;;;;;;;29.83;19.95;;;;;;;10.57;100.00;101143.22;10399575;28;20053;-67
2022/12/24 11:38:03;;;;;;;20.23;19.45;;;;;;;10.55;100.00;101125.88;10416776;28;20417;-67
2022/12/24 11:43:10;;;;;;;17.52;16.75;;;;;;;10.70;100.00;101145.19;10416703;28;20049;-67
2022/12/24 11:48:29;;;;;;;17.10;16.27;;;;;;;11.18;100.00;101129.53;10384123;28;20081;-67
2022/12/24 11:53:54;;;;;;;16.08;15.48;;;;;;;11.13;100.00;101133.28;10398763;28;20050;-67
2022/12/24 11:59:01;;;;;;;20.25;18.42;;;;;;;11.30;100.00;101142.84;10416303;28;20091;-67
2022/12/24 12:04:24;;;;;;;14.57;14.05;;;;;;;11.16;100.00;101140.09;10415150;28;20056;-67
2022/12/24 12:09:30;;;;;;;12.23;11.73;;;;;;;11.08;100.00;101144.94;10398677;28;20045;-67
2022/12/24 12:14:49;;;;;;;11.70;11.20;;;;;;;10.88;100.00;101149.47;10398500;28;20075;-67
2022/12/24 12:20:05;;;;;;;12.85;12.35;;;;;;;11.03;100.00;101149.56;10415850;28;20045;-67
2022/12/24 12:25:36;;;;;;;68.45;8.52;;;;;;;11.06;100.00;101162.50;10398375;28;20060;-67
2022/12/24 12:30:40;;;;;;;1999.90;999.90;;;;;;;10.75;100.00;101154.50;10398230;28;20041;-67
2022/12/24 12:35:43;;;;;;;1999.90;999.90;;;;;;;10.72;100.00;101170.34;10415287;28;20115;-67
2022/12/24 12:41:17;;;;;;;1999.90;999.90;;;;;;;10.88;100.00;101177.44;10406590;28;20042;-67
2022/12/24 12:46:28;;;;;;;1999.90;999.90;;;;;;;10.97;100.00;101184.78;10413363;28;20523;-67
2022/12/24 12:51:49;;;;;;;1999.90;999.90;;;;;;;11.19;100.00;101173.19;10413328;28;20052;-67
2022/12/24 12:56:55;;;;;;;1999.90;999.90;;;;;;;11.30;100.00;101179.53;10415744;28;20057;-67
2022/12/24 13:02:15;;;;;;;1999.90;999.90;;;;;;;11.18;100.00;101184.56;10430407;28;20045;-67
2022/12/24 13:08:01;;;;;;;1999.90;999.90;;;;;;;11.23;100.00;101188.66;10417792;28;20400;-68
2022/12/24 13:13:43;;;;;;;1999.90;999.90;;;;;;;10.77;100.00;101204.19;10385929;28;20053;-68
2022/12/24 13:18:58;;;;;;;42.60;23.08;;;;;;;10.86;100.00;101215.94;10422655;28;20049;-68
2022/12/24 13:24:18;;;;;;;20.13;18.63;;;;;;;11.07;100.00;101216.59;10422460;28;20053;-67
2022/12/24 13:29:34;;;;;;;12.45;12.05;;;;;;;10.71;100.00;101212.38;10436996;28;20057;-67
2022/12/24 13:34:37;;;;;;;12.00;11.60;;;;;;;10.59;100.00;101221.66;10421198;28;20489;-67
2022/12/24 13:40:04;;;;;;;8.35;8.05;;;;;;;10.29;100.00;101234.47;10421768;28;20049;-67
2022/12/24 13:45:28;;;;;;;9.38;9.07;;;;;;;10.54;100.00;101232.41;10421507;28;20432;-67
2022/12/24 13:50:43;;;;;;;1999.90;999.90;;;;;;;10.50;100.00;101240.47;10404478;28;20077;-65
2022/12/24 13:56:11;;;;;;;1999.90;999.90;;;;;;;10.21;100.00;101248.78;10436011;28;20096;-64
2022/12/24 14:01:41;;;;;;;1999.90;999.90;;;;;;;10.28;100.00;101248.50;10413251;28;20045;-65
2022/12/24 14:06:49;;;;;;;1999.90;999.90;;;;;;;10.39;100.00;101238.41;10433914;28;20112;-65
2022/12/24 14:11:57;;;;;;;1999.90;999.90;;;;;;;10.58;100.00;101249.63;10381084;28;20444;-65
2022/12/24 14:17:13;;;;;;;1999.90;999.90;;;;;;;10.47;100.00;101262.41;10415709;28;20133;-65
2022/12/24 14:22:35;;;;;;;1999.90;999.90;;;;;;;10.39;100.00;101275.88;10417436;28;20053;-65
2022/12/24 14:27:53;;;;;;;1999.90;999.90;;;;;;;10.50;100.00;101277.97;10426864;28;20045;-65
2022/12/24 14:32:57;;;;;;;1999.90;999.90;;;;;;;10.10;100.00;101284.25;10381446;28;20054;-64
2022/12/24 14:38:01;;;;;;;1999.90;999.90;;;;;;;10.16;100.00;101283.97;10360933;28;20057;-65
2022/12/24 14:43:16;;;;;;;1999.90;999.90;;;;;;;10.02;100.00;101280.25;10378313;28;20077;-64
2022/12/24 14:48:33;;;;;;;1999.90;999.90;;;;;;;9.94;100.00;101294.59;10378242;28;20050;-65
2022/12/24 14:54:03;;;;;;;1999.90;999.90;;;;;;;9.76;100.00;101307.59;10360383;28;20489;-64
2022/12/24 14:59:19;;;;;;;82.43;78.88;;;;;;;9.53;100.00;101311.28;10360325;28;20053;-65
2022/12/24 15:04:21;;;;;;;72.03;68.95;;;;;;;9.55;100.00;101316.41;10360312;28;20124;-65
2022/12/24 15:09:28;;;;;;;76.60;73.30;;;;;;;9.40;100.00;101317.97;10377457;28;20060;-64
2022/12/24 15:14:34;;;;;;;80.55;77.10;;;;;;;9.24;100.00;101330.84;10360413;28;20062;-65
2022/12/24 15:19:40;;;;;;;85.78;82.05;;;;;;;8.92;100.00;101333.88;10359153;28;20071;-64
2022/12/24 15:24:46;;;;;;;77.65;73.88;;;;;;;8.69;100.00;101324.41;10359059;28;20054;-66
2022/12/24 15:29:51;;;;;;;1999.90;999.90;;;;;;;8.31;100.00;101339.81;10375856;28;20046;-66
2022/12/24 15:34:55;;;;;;;0.40;0.40;;;;;;;8.18;100.00;101355.09;10376465;28;20092;-66
2022/12/24 15:40:32;;;;;;;0.30;0.30;;;;;;;8.04;100.00;101364.38;10376295;28;20056;-66
2022/12/24 15:45:41;;;;;;;0.10;0.10;;;;;;;7.89;100.00;101371.00;10387281;28;20476;-65
2022/12/24 15:50:49;;;;;;;1.55;1.55;;;;;;;7.43;100.00;101370.88;10428528;28;20094;-65
2022/12/24 15:56:29;;;;;;;0.10;0.10;;;;;;;7.28;100.00;101369.69;10367729;28;20057;-66
2022/12/24 16:01:31;;;;;;;0.10;0.10;;;;;;;7.17;100.00;101370.03;10415093;28;20049;-65
2022/12/24 16:06:53;;;;;;;0.20;0.20;;;;;;;7.19;100.00;101380.41;10415499;28;20057;-66
2022/12/24 16:11:56;;;;;;;0.10;0.10;;;;;;;7.19;100.00;101389.06;10416248;28;20042;-65
2022/12/24 16:17:17;;;;;;;86.22;6.22;;;;;;;6.97;100.00;101386.31;10415459;28;20427;-65
2022/12/24 16:22:30;;;;;;;0.10;0.10;;;;;;;6.97;100.00;101393.28;10414105;28;20048;-66
2022/12/24 16:27:33;;;;;;;0.20;0.20;;;;;;;6.98;100.00;101395.00;10399803;28;20053;-65
2022/12/24 16:32:36;;;;;;;0.10;0.10;;;;;;;7.00;100.00;101403.59;10416159;28;20057;-65
2022/12/24 16:37:39;;;;;;;0.10;0.10;;;;;;;7.09;100.00;101408.50;10414830;28;20164;-66
2022/12/24 16:48:06;;;;;;;0.20;0.20;;;;;;;6.99;100.00;101402.75;10424107;28;20049;-65
2022/12/24 16:53:15;;;;;;;0.10;0.10;;;;;;;7.03;100.00;101403.50;10422506;28;20052;-66
2022/12/24 16:58:19;;;;;;;0.13;0.13;;;;;;;6.94;100.00;101402.03;10422292;28;20128;-65
2022/12/24 17:03:22;;;;;;;0.20;0.20;;;;;;;6.88;100.00;101405.69;10423169;28;20041;-65
2022/12/24 17:08:25;;;;;;;0.10;0.10;;;;;;;6.69;100.00;101417.56;10424528;28;20053;-66
2022/12/24 17:13:27;;;;;;;0.10;0.10;;;;;;;6.74;100.00;101420.91;10422331;28;20528;-65
2022/12/24 17:18:30;;;;;;;0.10;0.10;;;;;;;6.62;100.00;101408.28;10423222;28;20053;-65
2022/12/24 17:23:32;;;;;;;0.10;0.10;;;;;;;6.61;100.00;101409.19;10422370;28;20045;-66
2022/12/24 17:28:35;;;;;;;0.10;0.10;;;;;;;6.66;100.00;101407.28;10404184;28;20053;-65
2022/12/24 17:33:37;;;;;;;0.10;0.10;;;;;;;6.59;100.00;101419.63;10421612;28;20053;-65
2022/12/24 17:38:39;;;;;;;0.10;0.10;;;;;;;6.43;100.00;101427.03;10421717;28;20064;-65
2022/12/24 17:43:42;;;;;;;0.10;0.10;;;;;;;6.29;100.00;101443.06;10422200;28;20057;-65
2022/12/24 17:48:44;;;;;;;0.20;0.20;;;;;;;6.32;100.00;101435.19;10420981;28;20488;-65
2022/12/24 17:53:48;;;;;;;0.10;0.10;;;;;;;6.36;100.00;101422.94;10419244;28;20056;-66
2022/12/24 17:58:51;;;;;;;0.13;0.13;;;;;;;6.26;100.00;101424.09;10420601;28;20487;-65
2022/12/24 18:03:53;;;;;;;0.10;0.10;;;;;;;6.36;100.00;101424.69;10420946;28;20045;-66
2022/12/24 18:08:56;;;;;;;0.20;0.20;;;;;;;6.31;100.00;101414.41;10420227;28;20416;-65
2022/12/24 18:13:59;;;;;;;0.40;0.38;;;;;;;6.15;100.00;101411.41;10419516;28;20110;-65
2022/12/24 18:19:05;;;;;;;0.20;0.20;;;;;;;6.31;100.00;101422.22;10418681;28;20152;-65
2022/12/24 18:24:08;;;;;;;0.13;0.13;;;;;;;6.19;100.00;101413.03;10418489;28;20460;-65
2022/12/24 18:29:11;;;;;;;0.10;0.10;;;;;;;6.26;100.00;101427.53;10418205;28;20382;-65
2022/12/24 18:34:14;;;;;;;0.20;0.20;;;;;;;6.27;100.00;101433.59;10401834;28;20046;-65
2022/12/24 18:39:16;;;;;;;0.10;0.10;;;;;;;6.43;100.00;101447.84;10419183;28;20064;-65
2022/12/24 18:44:19;;;;;;;0.10;0.10;;;;;;;6.10;100.00;101441.88;10418703;28;20401;-65
2022/12/24 18:49:26;;;;;;;3.70;3.40;;;;;;;6.00;100.00;101430.03;10441539;23;20403;-67
2022/12/24 18:54:28;;;;;;;0.10;0.10;;;;;;;6.33;100.00;101430.81;10441972;28;20052;-67
2022/12/24 18:59:31;;;;;;;0.10;0.10;;;;;;;6.33;100.00;101428.22;10459426;28;20049;-68
2022/12/24 19:04:33;;;;;;;0.10;0.10;;;;;;;6.06;100.00;101435.06;10425079;28;20049;-67
2022/12/24 19:09:36;;;;;;;0.20;0.20;;;;;;;6.22;100.00;101430.28;10459674;28;20091;-68
2022/12/24 19:14:38;;;;;;;0.10;0.10;;;;;;;6.10;100.00;101442.75;10424548;28;20056;-67
2022/12/24 19:19:41;;;;;;;1.75;1.38;;;;;;;6.20;100.00;101437.28;10441595;28;20057;-67
2022/12/24 19:24:43;;;;;;;0.10;0.10;;;;;;;6.37;100.00;101448.06;10457210;28;20561;-67
2022/12/24 19:29:45;;;;;;;0.10;0.10;;;;;;;6.23;100.00;101439.78;10455927;28;20381;-67
2022/12/24 19:34:47;;;;;;;0.10;0.10;;;;;;;6.01;100.00;101431.75;10458716;28;20048;-68
2022/12/24 19:39:50;;;;;;;0.20;0.20;;;;;;;6.21;100.00;101441.59;10455091;28;20053;-67
2022/12/24 19:44:52;;;;;;;0.10;0.10;;;;;;;6.27;100.00;101436.19;10458255;28;20052;-67
2022/12/24 19:49:54;;;;;;;0.10;0.10;;;;;;;6.07;100.00;101441.97;10455681;28;20056;-67
2022/12/24 19:54:57;;;;;;;0.20;0.20;;;;;;;6.40;100.00;101437.53;10453372;28;20049;-67
2022/12/24 19:59:59;;;;;;;0.10;0.10;;;;;;;6.48;100.00;101438.16;10454329;28;20045;-67
2022/12/24 20:05:02;;;;;;;0.20;0.20;;;;;;;6.50;100.00;101444.16;10439302;28;20502;-67
2022/12/24 20:10:04;;;;;;;0.20;0.20;;;;;;;6.30;100.00;101447.38;10453461;28;20497;-67
2022/12/24 20:15:07;;;;;;;0.20;0.20;;;;;;;6.33;100.00;101462.88;10452479;28;20057;-67
2022/12/24 20:20:10;;;;;;;0.20;0.20;;;;;;;6.55;100.00;101475.25;10457132;28;20053;-67
2022/12/24 20:25:12;;;;;;;0.45;0.45;;;;;;;6.47;100.00;101472.91;10455186;28;20055;-67
2022/12/24 20:30:15;;;;;;;2.85;2.75;;;;;;;6.49;100.00;101481.50;10456967;28;20053;-67
2022/12/24 20:35:17;;;;;;;0.10;0.10;;;;;;;6.62;100.00;101484.59;10456854;28;20048;-67
2022/12/24 20:40:20;;;;;;;0.20;0.20;;;;;;;6.74;100.00;101482.50;10437897;28;20041;-67
2022/12/24 20:45:22;;;;;;;0.10;0.10;;;;;;;6.98;100.00;101499.97;10453579;28;20507;-68
2022/12/24 20:50:25;;;;;;;0.20;0.20;;;;;;;6.96;100.00;101473.16;10456374;28;20056;-67
2022/12/24 20:55:28;;;;;;;0.20;0.20;;;;;;;6.97;100.00;101480.03;10456502;28;20115;-68
2022/12/24 21:00:30;;;;;;;0.10;0.10;;;;;;;7.44;100.00;101469.84;10454401;28;20530;-67
2022/12/24 21:05:33;;;;;;;0.10;0.10;;;;;;;7.41;100.00;101471.69;10454533;28;20488;-67
2022/12/24 21:10:36;;;;;;;0.10;0.10;;;;;;;7.37;100.00;101454.47;10456239;28;20059;-68
2022/12/24 21:15:39;;;;;;;2.28;1.10;;;;;;;7.64;100.00;101468.31;10436132;28;20053;-68
2022/12/24 21:20:42;;;;;;;0.20;0.20;;;;;;;7.61;100.00;101460.59;10455915;28;20095;-68
2022/12/24 21:25:45;;;;;;;0.00;0.00;;;;;;;7.69;100.00;101457.75;10437306;28;20053;-67
2022/12/24 21:30:47;;;;;;;0.40;0.40;;;;;;;7.40;100.00;101442.19;10444520;28;20045;-67
2022/12/24 21:35:50;;;;;;;0.03;0.03;;;;;;;7.60;100.00;101438.06;10463646;28;20095;-67
2022/12/24 21:41:04;;;;;;;0.15;0.15;;;;;;;7.39;100.00;101440.47;10443757;28;20412;-67
2022/12/24 21:46:08;;;;;;;0.10;0.10;;;;;;;7.06;100.00;101435.50;10461335;28;20488;-67
2022/12/24 21:51:11;;;;;;;0.10;0.10;;;;;;;7.16;100.00;101419.56;10462717;28;20049;-67
2022/12/24 21:56:13;;;;;;;0.10;0.10;;;;;;;7.27;100.00;101421.81;10444254;28;20139;-67
2022/12/24 22:01:15;;;;;;;0.10;0.10;;;;;;;7.15;100.00;101420.47;10462320;28;20041;-67
2022/12/24 22:11:48;;;;;;;0.10;0.10;;;;;;;7.24;100.00;101423.59;10461152;28;20041;-67
2022/12/24 22:16:55;;;;;;;0.20;0.20;;;;;;;7.08;100.00;101417.22;10461826;28;20057;-67
2022/12/24 22:21:58;;;;;;;0.10;0.10;;;;;;;6.82;100.00;101428.47;10460866;28;20460;-67
2022/12/24 22:27:00;;;;;;;0.30;0.30;;;;;;;6.90;100.00;101433.44;10457929;28;20049;-67
2022/12/24 22:32:02;;;;;;;0.10;0.10;;;;;;;6.87;100.00;101418.75;10442880;28;20072;-67
2022/12/24 22:37:05;;;;;;;1.83;1.75;;;;;;;6.55;100.00;101425.81;10459264;28;20119;-67
2022/12/24 22:42:07;;;;;;;2.50;0.60;;;;;;;6.52;100.00;101410.28;10458395;28;20060;-67
2022/12/24 22:47:09;;;;;;;0.20;0.20;;;;;;;6.65;100.00;101423.78;10431295;28;20510;-67
2022/12/24 22:52:12;;;;;;;0.20;0.20;;;;;;;6.56;100.00;101419.72;10455368;28;20071;-67
2022/12/24 22:57:14;;;;;;;0.10;0.10;;;;;;;6.56;100.00;101429.28;10458241;28;20059;-68
2022/12/24 23:02:16;;;;;;;0.10;0.10;;;;;;;6.47;100.00;101422.59;10460000;28;20049;-67
2022/12/24 23:07:28;;;;;;;0.20;0.20;;;;;;;6.41;100.00;101425.41;10459583;28;20045;-67
2022/12/24 23:17:52;;;;;;;0.20;0.20;;;;;;;6.58;100.00;101419.69;10458606;28;20080;-67
2022/12/24 23:22:54;;;;;;;0.20;0.20;;;;;;;6.50;100.00;101436.34;10457220;28;20045;-67
2022/12/24 23:27:57;;;;;;;0.20;0.20;;;;;;;6.49;100.00;101446.84;10458214;28;20045;-67
2022/12/24 23:32:59;;;;;;;0.10;0.10;;;;;;;6.96;100.00;101457.53;10458811;28;20052;-67
2022/12/24 23:38:02;;;;;;;0.10;0.10;;;;;;;6.95;100.00;101463.63;10456955;28;20522;-67
2022/12/24 23:43:04;;;;;;;0.10;0.10;;;;;;;6.96;100.00;101467.06;10455384;28;20477;-67